sensor_id;sensor_type;location;lat;lon;timestamp;temperature;humidity
57709;SHT35;42558;52.388;13.390;2023-01-01T00:01:27;15.49;65.70
57709;SHT35;42558;52.388;13.390;2023-01-01T00:03:58;15.40;66.00
57709;SHT35;42558;52.388;13.390;2023-01-01T00:06:28;15.35;65.95
57709;SHT35;42558;52.388;13.390;2023-01-01T00:08:58;15.40;65.56
57709;SHT35;42558;52.388;13.390;2023-01-01T00:11:46;15.65;64.32
57709;SHT35;42558;52.388;13.390;2023-01-01T00:14:16;15.65;64.18
57709;SHT35;42558;52.388;13.390;2023-01-01T00:16:44;15.61;64.03
57709;SHT35;42558;52.388;13.390;2023-01-01T00:19:13;15.57;63.98
57709;SHT35;42558;52.388;13.390;2023-01-01T00:21:41;15.60;63.79
57709;SHT35;42558;52.388;13.390;2023-01-01T00:24:10;15.63;63.56
57709;SHT35;42558;52.388;13.390;2023-01-01T00:26:38;15.71;62.92
57709;SHT35;42558;52.388;13.390;2023-01-01T00:29:07;15.70;62.84
57709;SHT35;42558;52.388;13.390;2023-01-01T00:31:35;15.64;63.00
57709;SHT35;42558;52.388;13.390;2023-01-01T00:34:03;15.63;62.81
57709;SHT35;42558;52.388;13.390;2023-01-01T00:36:32;15.72;62.34
57709;SHT35;42558;52.388;13.390;2023-01-01T00:39:01;15.77;61.91
57709;SHT35;42558;52.388;13.390;2023-01-01T00:41:32;15.82;61.57
57709;SHT35;42558;52.388;13.390;2023-01-01T00:44:00;15.74;61.70
57709;SHT35;42558;52.388;13.390;2023-01-01T00:46:28;15.80;61.22
57709;SHT35;42558;52.388;13.390;2023-01-01T00:48:57;15.77;61.30
57709;SHT35;42558;52.388;13.390;2023-01-01T00:51:25;15.76;61.10
57709;SHT35;42558;52.388;13.390;2023-01-01T00:54:02;15.80;60.87
57709;SHT35;42558;52.388;13.390;2023-01-01T00:56:30;15.77;60.88
57709;SHT35;42558;52.388;13.390;2023-01-01T00:58:58;15.64;61.33
57709;SHT35;42558;52.388;13.390;2023-01-01T01:01:27;15.64;61.07
57709;SHT35;42558;52.388;13.390;2023-01-01T01:03:55;15.77;60.41
57709;SHT35;42558;52.388;13.390;2023-01-01T01:06:24;15.72;60.54
57709;SHT35;42558;52.388;13.390;2023-01-01T01:08:52;15.67;60.36
57709;SHT35;42558;52.388;13.390;2023-01-01T01:11:22;15.89;59.42
57709;SHT35;42558;52.388;13.390;2023-01-01T01:13:53;15.98;59.11
57709;SHT35;42558;52.388;13.390;2023-01-01T01:16:29;15.81;59.59
57709;SHT35;42558;52.388;13.390;2023-01-01T01:19:02;15.88;59.05
57709;SHT35;42558;52.388;13.390;2023-01-01T01:21:34;15.79;59.42
57709;SHT35;42558;52.388;13.390;2023-01-01T01:24:04;15.80;59.21
57709;SHT35;42558;52.388;13.390;2023-01-01T01:26:34;15.77;59.16
57709;SHT35;42558;52.388;13.390;2023-01-01T01:29:05;15.78;59.10
57709;SHT35;42558;52.388;13.390;2023-01-01T01:31:34;15.86;58.57
57709;SHT35;42558;52.388;13.390;2023-01-01T01:34:04;15.94;58.21
57709;SHT35;42558;52.388;13.390;2023-01-01T01:36:40;15.82;58.66
57709;SHT35;42558;52.388;13.390;2023-01-01T01:39:10;15.99;57.74
57709;SHT35;42558;52.388;13.390;2023-01-01T01:41:40;15.95;57.96
57709;SHT35;42558;52.388;13.390;2023-01-01T01:53:01;15.86;57.97
57709;SHT35;42558;52.388;13.390;2023-01-01T01:55:47;15.87;58.08
57709;SHT35;42558;52.388;13.390;2023-01-01T01:58:23;15.68;58.80
57709;SHT35;42558;52.388;13.390;2023-01-01T02:00:53;15.57;58.97
57709;SHT35;42558;52.388;13.390;2023-01-01T02:03:36;15.58;58.84
57709;SHT35;42558;52.388;13.390;2023-01-01T02:06:11;15.66;58.50
57709;SHT35;42558;52.388;13.390;2023-01-01T02:08:42;15.59;58.75
57709;SHT35;42558;52.388;13.390;2023-01-01T02:11:12;15.56;58.79
57709;SHT35;42558;52.388;13.390;2023-01-01T02:13:47;15.65;58.41
57709;SHT35;42558;52.388;13.390;2023-01-01T02:19:16;15.65;58.51
57709;SHT35;42558;52.388;13.390;2023-01-01T02:30:34;15.61;58.51
57709;SHT35;42558;52.388;13.390;2023-01-01T02:33:06;15.63;58.22
57709;SHT35;42558;52.388;13.390;2023-01-01T02:35:44;15.71;57.92
57709;SHT35;42558;52.388;13.390;2023-01-01T02:41:02;15.71;57.89
57709;SHT35;42558;52.388;13.390;2023-01-01T02:43:40;15.64;58.02
57709;SHT35;42558;52.388;13.390;2023-01-01T02:46:11;15.65;57.92
57709;SHT35;42558;52.388;13.390;2023-01-01T02:48:45;15.72;57.65
57709;SHT35;42558;52.388;13.390;2023-01-01T02:58:33;15.63;57.87
57709;SHT35;42558;52.388;13.390;2023-01-01T03:01:28;15.58;57.97
57709;SHT35;42558;52.388;13.390;2023-01-01T03:07:28;15.35;59.00
57709;SHT35;42558;52.388;13.390;2023-01-01T03:16:53;15.51;58.35
57709;SHT35;42558;52.388;13.390;2023-01-01T03:19:35;15.49;58.44
57709;SHT35;42558;52.388;13.390;2023-01-01T03:22:09;15.39;59.00
57709;SHT35;42558;52.388;13.390;2023-01-01T03:27:36;15.49;58.47
57709;SHT35;42558;52.388;13.390;2023-01-01T03:30:31;15.50;58.59
57709;SHT35;42558;52.388;13.390;2023-01-01T03:33:17;15.41;58.80
57709;SHT35;42558;52.388;13.390;2023-01-01T03:35:57;15.33;59.15
57709;SHT35;42558;52.388;13.390;2023-01-01T03:38:47;15.32;59.18
57709;SHT35;42558;52.388;13.390;2023-01-01T03:41:28;15.13;59.88
57709;SHT35;42558;52.388;13.390;2023-01-01T03:44:13;15.05;60.13
57709;SHT35;42558;52.388;13.390;2023-01-01T03:46:54;14.98;60.36
57709;SHT35;42558;52.388;13.390;2023-01-01T03:49:23;14.91;60.63
57709;SHT35;42558;52.388;13.390;2023-01-01T03:55:03;14.69;61.48
57709;SHT35;42558;52.388;13.390;2023-01-01T04:00:34;14.54;62.05
57709;SHT35;42558;52.388;13.390;2023-01-01T04:03:17;14.57;61.86
57709;SHT35;42558;52.388;13.390;2023-01-01T04:05:53;14.56;61.88
57709;SHT35;42558;52.388;13.390;2023-01-01T04:08:24;14.59;61.63
57709;SHT35;42558;52.388;13.390;2023-01-01T04:10:54;14.58;61.68
57709;SHT35;42558;52.388;13.390;2023-01-01T04:13:27;14.50;61.86
57709;SHT35;42558;52.388;13.390;2023-01-01T04:15:57;14.46;62.00
57709;SHT35;42558;52.388;13.390;2023-01-01T04:18:27;14.28;62.59
57709;SHT35;42558;52.388;13.390;2023-01-01T04:20:57;14.27;62.64
57709;SHT35;42558;52.388;13.390;2023-01-01T04:23:27;14.31;62.57
57709;SHT35;42558;52.388;13.390;2023-01-01T04:25:56;14.27;62.71
57709;SHT35;42558;52.388;13.390;2023-01-01T04:28:26;14.27;62.61
57709;SHT35;42558;52.388;13.390;2023-01-01T04:30:59;14.33;62.32
57709;SHT35;42558;52.388;13.390;2023-01-01T04:33:31;14.35;62.25
57709;SHT35;42558;52.388;13.390;2023-01-01T04:36:02;14.25;62.57
57709;SHT35;42558;52.388;13.390;2023-01-01T04:38:38;14.34;62.19
57709;SHT35;42558;52.388;13.390;2023-01-01T04:41:08;14.29;62.44
57709;SHT35;42558;52.388;13.390;2023-01-01T04:43:36;14.21;62.67
57709;SHT35;42558;52.388;13.390;2023-01-01T04:46:05;14.19;62.84
57709;SHT35;42558;52.388;13.390;2023-01-01T04:48:33;14.14;62.91
57709;SHT35;42558;52.388;13.390;2023-01-01T04:51:02;14.17;62.72
57709;SHT35;42558;52.388;13.390;2023-01-01T04:53:33;14.31;62.33
57709;SHT35;42558;52.388;13.390;2023-01-01T04:56:05;14.18;62.84
57709;SHT35;42558;52.388;13.390;2023-01-01T04:58:38;14.13;62.97
57709;SHT35;42558;52.388;13.390;2023-01-01T05:01:14;14.13;62.98
57709;SHT35;42558;52.388;13.390;2023-01-01T05:03:54;14.32;62.35
57709;SHT35;42558;52.388;13.390;2023-01-01T05:06:25;14.31;62.48
57709;SHT35;42558;52.388;13.390;2023-01-01T05:08:57;14.29;62.44
57709;SHT35;42558;52.388;13.390;2023-01-01T05:11:29;14.27;62.47
57709;SHT35;42558;52.388;13.390;2023-01-01T05:14:00;14.19;62.96
57709;SHT35;42558;52.388;13.390;2023-01-01T05:16:32;13.97;63.84
57709;SHT35;42558;52.388;13.390;2023-01-01T05:19:05;13.89;64.22
57709;SHT35;42558;52.388;13.390;2023-01-01T05:21:38;13.81;64.56
57709;SHT35;42558;52.388;13.390;2023-01-01T05:24:08;13.74;64.95
57709;SHT35;42558;52.388;13.390;2023-01-01T05:26:39;13.63;65.35
57709;SHT35;42558;52.388;13.390;2023-01-01T05:29:12;13.60;65.53
57709;SHT35;42558;52.388;13.390;2023-01-01T05:31:45;13.66;65.35
57709;SHT35;42558;52.388;13.390;2023-01-01T05:34:12;13.69;65.31
57709;SHT35;42558;52.388;13.390;2023-01-01T05:36:40;13.66;65.45
57709;SHT35;42558;52.388;13.390;2023-01-01T05:39:10;13.57;65.86
57709;SHT35;42558;52.388;13.390;2023-01-01T05:41:40;13.57;65.81
57709;SHT35;42558;52.388;13.390;2023-01-01T05:44:10;13.65;65.70
57709;SHT35;42558;52.388;13.390;2023-01-01T05:46:40;13.62;65.89
57709;SHT35;42558;52.388;13.390;2023-01-01T05:49:11;13.61;65.90
57709;SHT35;42558;52.388;13.390;2023-01-01T05:51:41;13.73;65.59
57709;SHT35;42558;52.388;13.390;2023-01-01T05:54:11;13.92;65.04
57709;SHT35;42558;52.388;13.390;2023-01-01T05:56:39;13.86;65.30
57709;SHT35;42558;52.388;13.390;2023-01-01T05:59:09;13.81;65.56
57709;SHT35;42558;52.388;13.390;2023-01-01T06:01:39;13.80;65.67
57709;SHT35;42558;52.388;13.390;2023-01-01T06:04:13;13.84;65.64
57709;SHT35;42558;52.388;13.390;2023-01-01T06:06:43;13.85;65.64
57709;SHT35;42558;52.388;13.390;2023-01-01T06:09:10;13.87;65.72
57709;SHT35;42558;52.388;13.390;2023-01-01T06:11:38;13.87;65.72
57709;SHT35;42558;52.388;13.390;2023-01-01T06:14:07;13.90;65.77
57709;SHT35;42558;52.388;13.390;2023-01-01T06:16:36;13.85;65.97
57709;SHT35;42558;52.388;13.390;2023-01-01T06:19:04;13.73;66.39
57709;SHT35;42558;52.388;13.390;2023-01-01T06:21:32;13.72;66.38
57709;SHT35;42558;52.388;13.390;2023-01-01T06:24:01;13.81;66.14
57709;SHT35;42558;52.388;13.390;2023-01-01T06:26:30;13.84;66.07
57709;SHT35;42558;52.388;13.390;2023-01-01T06:29:01;13.86;65.97
57709;SHT35;42558;52.388;13.390;2023-01-01T06:31:33;13.86;65.99
57709;SHT35;42558;52.388;13.390;2023-01-01T06:34:09;13.90;65.84
57709;SHT35;42558;52.388;13.390;2023-01-01T06:36:39;13.90;65.84
57709;SHT35;42558;52.388;13.390;2023-01-01T06:39:08;13.93;65.77
57709;SHT35;42558;52.388;13.390;2023-01-01T06:41:38;14.04;65.39
57709;SHT35;42558;52.388;13.390;2023-01-01T06:44:08;14.09;65.13
57709;SHT35;42558;52.388;13.390;2023-01-01T06:46:38;14.10;65.00
57709;SHT35;42558;52.388;13.390;2023-01-01T06:49:11;14.12;64.82
57709;SHT35;42558;52.388;13.390;2023-01-01T06:56:01;14.11;64.68
57709;SHT35;42558;52.388;13.390;2023-01-01T06:58:30;14.06;64.77
57709;SHT35;42558;52.388;13.390;2023-01-01T07:01:02;13.98;65.00
57709;SHT35;42558;52.388;13.390;2023-01-01T07:03:39;14.05;64.51
57709;SHT35;42558;52.388;13.390;2023-01-01T07:06:07;14.24;63.79
57709;SHT35;42558;52.388;13.390;2023-01-01T07:08:39;14.20;63.91
57709;SHT35;42558;52.388;13.390;2023-01-01T07:11:09;14.20;63.78
57709;SHT35;42558;52.388;13.390;2023-01-01T07:13:39;14.20;63.96
57709;SHT35;42558;52.388;13.390;2023-01-01T07:16:09;14.10;64.22
57709;SHT35;42558;52.388;13.390;2023-01-01T07:18:42;14.18;63.81
57709;SHT35;42558;52.388;13.390;2023-01-01T07:24:09;14.32;63.19
57709;SHT35;42558;52.388;13.390;2023-01-01T07:26:41;14.26;63.46
57709;SHT35;42558;52.388;13.390;2023-01-01T07:29:12;14.19;63.73
57709;SHT35;42558;52.388;13.390;2023-01-01T07:31:43;14.25;63.49
57709;SHT35;42558;52.388;13.390;2023-01-01T07:34:15;14.23;63.59
57709;SHT35;42558;52.388;13.390;2023-01-01T07:36:48;14.36;62.92
57709;SHT35;42558;52.388;13.390;2023-01-01T07:39:18;14.47;62.75
57709;SHT35;42558;52.388;13.390;2023-01-01T07:41:47;14.51;62.33
57709;SHT35;42558;52.388;13.390;2023-01-01T07:44:16;14.70;61.76
57709;SHT35;42558;52.388;13.390;2023-01-01T07:46:44;14.65;62.03
57709;SHT35;42558;52.388;13.390;2023-01-01T07:49:12;14.72;61.73
57709;SHT35;42558;52.388;13.390;2023-01-01T07:51:41;14.75;61.54
57709;SHT35;42558;52.388;13.390;2023-01-01T07:54:09;14.76;61.70
57709;SHT35;42558;52.388;13.390;2023-01-01T07:56:38;14.66;62.14
57709;SHT35;42558;52.388;13.390;2023-01-01T07:59:06;14.64;62.17
57709;SHT35;42558;52.388;13.390;2023-01-01T08:01:35;14.66;62.29
57709;SHT35;42558;52.388;13.390;2023-01-01T08:04:06;14.83;61.57
57709;SHT35;42558;52.388;13.390;2023-01-01T08:06:36;14.92;61.18
57709;SHT35;42558;52.388;13.390;2023-01-01T08:09:06;14.89;61.51
57709;SHT35;42558;52.388;13.390;2023-01-01T08:11:36;14.92;61.31
57709;SHT35;42558;52.388;13.390;2023-01-01T08:14:05;14.92;61.38
57709;SHT35;42558;52.388;13.390;2023-01-01T08:16:35;14.91;61.48
57709;SHT35;42558;52.388;13.390;2023-01-01T08:19:05;14.91;61.55
57709;SHT35;42558;52.388;13.390;2023-01-01T08:21:35;14.98;61.19
57709;SHT35;42558;52.388;13.390;2023-01-01T08:24:05;14.98;61.23
57709;SHT35;42558;52.388;13.390;2023-01-01T08:26:35;15.02;61.12
57709;SHT35;42558;52.388;13.390;2023-01-01T08:29:05;14.96;61.40
57709;SHT35;42558;52.388;13.390;2023-01-01T08:31:35;15.00;61.26
57709;SHT35;42558;52.388;13.390;2023-01-01T08:34:05;15.07;61.10
57709;SHT35;42558;52.388;13.390;2023-01-01T08:36:35;15.05;61.11
57709;SHT35;42558;52.388;13.390;2023-01-01T08:39:08;15.09;60.99
57709;SHT35;42558;52.388;13.390;2023-01-01T08:41:38;15.06;61.26
57709;SHT35;42558;52.388;13.390;2023-01-01T08:44:08;15.03;61.36
57709;SHT35;42558;52.388;13.390;2023-01-01T08:46:37;15.11;61.04
57709;SHT35;42558;52.388;13.390;2023-01-01T08:49:05;15.08;61.29
57709;SHT35;42558;52.388;13.390;2023-01-01T08:51:34;15.10;61.27
57709;SHT35;42558;52.388;13.390;2023-01-01T08:54:02;15.18;61.11
57709;SHT35;42558;52.388;13.390;2023-01-01T08:56:30;15.27;60.65
57709;SHT35;42558;52.388;13.390;2023-01-01T08:58:59;15.25;60.92
57709;SHT35;42558;52.388;13.390;2023-01-01T09:01:30;15.24;60.87
57709;SHT35;42558;52.388;13.390;2023-01-01T09:03:59;15.28;60.82
57709;SHT35;42558;52.388;13.390;2023-01-01T09:06:27;15.32;60.60
57709;SHT35;42558;52.388;13.390;2023-01-01T09:08:55;15.31;60.73
57709;SHT35;42558;52.388;13.390;2023-01-01T09:11:27;15.32;60.64
57709;SHT35;42558;52.388;13.390;2023-01-01T09:13:57;15.35;60.63
57709;SHT35;42558;52.388;13.390;2023-01-01T09:16:27;15.30;60.77
57709;SHT35;42558;52.388;13.390;2023-01-01T09:18:57;15.28;60.95
57709;SHT35;42558;52.388;13.390;2023-01-01T09:21:27;15.27;60.93
57709;SHT35;42558;52.388;13.390;2023-01-01T09:23:56;15.27;61.10
57709;SHT35;42558;52.388;13.390;2023-01-01T09:26:26;15.23;61.19
57709;SHT35;42558;52.388;13.390;2023-01-01T09:28:56;15.22;61.29
57709;SHT35;42558;52.388;13.390;2023-01-01T09:31:26;15.20;61.36
57709;SHT35;42558;52.388;13.390;2023-01-01T09:33:56;15.17;61.52
57709;SHT35;42558;52.388;13.390;2023-01-01T09:36:27;15.16;61.50
57709;SHT35;42558;52.388;13.390;2023-01-01T09:39:01;15.20;61.45
57709;SHT35;42558;52.388;13.390;2023-01-01T09:41:54;15.18;61.57
57709;SHT35;42558;52.388;13.390;2023-01-01T09:45:27;15.23;61.42
57709;SHT35;42558;52.388;13.390;2023-01-01T09:48:04;15.24;61.49
57709;SHT35;42558;52.388;13.390;2023-01-01T09:50:42;15.33;61.35
57709;SHT35;42558;52.388;13.390;2023-01-01T09:56:31;15.46;60.99
57709;SHT35;42558;52.388;13.390;2023-01-01T09:59:06;15.53;60.78
57709;SHT35;42558;52.388;13.390;2023-01-01T10:10:38;15.75;60.51
57709;SHT35;42558;52.388;13.390;2023-01-01T10:13:33;15.68;60.80
57709;SHT35;42558;52.388;13.390;2023-01-01T10:19:06;15.61;61.06
57709;SHT35;42558;52.388;13.390;2023-01-01T10:21:55;15.69;60.89
57709;SHT35;42558;52.388;13.390;2023-01-01T10:27:34;15.78;60.77
57709;SHT35;42558;52.388;13.390;2023-01-01T10:30:17;15.79;60.73
57709;SHT35;42558;52.388;13.390;2023-01-01T10:32:51;15.90;60.59
57709;SHT35;42558;52.388;13.390;2023-01-01T10:35:25;16.12;60.00
57709;SHT35;42558;52.388;13.390;2023-01-01T10:38:09;16.00;60.02
57709;SHT35;42558;52.388;13.390;2023-01-01T10:41:01;15.89;60.63
57709;SHT35;42558;52.388;13.390;2023-01-01T10:43:45;15.91;60.31
57709;SHT35;42558;52.388;13.390;2023-01-01T10:46:18;15.90;60.73
57709;SHT35;42558;52.388;13.390;2023-01-01T10:49:07;15.92;60.33
57709;SHT35;42558;52.388;13.390;2023-01-01T10:51:50;15.86;60.76
57709;SHT35;42558;52.388;13.390;2023-01-01T10:54:24;15.85;61.06
57709;SHT35;42558;52.388;13.390;2023-01-01T10:57:15;15.86;60.85
57709;SHT35;42558;52.388;13.390;2023-01-01T11:02:47;15.93;60.38
57709;SHT35;42558;52.388;13.390;2023-01-01T11:08:51;15.94;60.21
57709;SHT35;42558;52.388;13.390;2023-01-01T11:11:26;15.97;59.97
57709;SHT35;42558;52.388;13.390;2023-01-01T11:14:00;15.96;60.35
57709;SHT35;42558;52.388;13.390;2023-01-01T11:16:37;15.93;60.25
57709;SHT35;42558;52.388;13.390;2023-01-01T11:19:23;15.92;60.47
57709;SHT35;42558;52.388;13.390;2023-01-01T11:22:09;15.91;60.37
57709;SHT35;42558;52.388;13.390;2023-01-01T11:25:27;15.90;60.26
57709;SHT35;42558;52.388;13.390;2023-01-01T11:28:19;15.83;60.51
57709;SHT35;42558;52.388;13.390;2023-01-01T11:31:00;15.84;60.57
57709;SHT35;42558;52.388;13.390;2023-01-01T11:33:49;15.78;60.62
57709;SHT35;42558;52.388;13.390;2023-01-01T11:36:24;15.74;60.86
57709;SHT35;42558;52.388;13.390;2023-01-01T11:39:33;15.74;60.70
57709;SHT35;42558;52.388;13.390;2023-01-01T11:41:56;15.77;60.64
57709;SHT35;42558;52.388;13.390;2023-01-01T11:44:48;15.78;60.86
57709;SHT35;42558;52.388;13.390;2023-01-01T11:50:17;15.76;61.13
57709;SHT35;42558;52.388;13.390;2023-01-01T11:53:18;15.83;61.29
57709;SHT35;42558;52.388;13.390;2023-01-01T11:55:56;15.85;61.05
57709;SHT35;42558;52.388;13.390;2023-01-01T12:04:04;15.88;60.72
57709;SHT35;42558;52.388;13.390;2023-01-01T12:06:45;15.83;61.03
57709;SHT35;42558;52.388;13.390;2023-01-01T12:09:23;15.87;60.75
57709;SHT35;42558;52.388;13.390;2023-01-01T12:12:26;15.88;60.99
57709;SHT35;42558;52.388;13.390;2023-01-01T12:15:05;15.84;61.15
57709;SHT35;42558;52.388;13.390;2023-01-01T12:23:28;15.72;61.77
57709;SHT35;42558;52.388;13.390;2023-01-01T12:26:10;15.66;62.09
57709;SHT35;42558;52.388;13.390;2023-01-01T12:28:47;15.60;62.49
57709;SHT35;42558;52.388;13.390;2023-01-01T12:31:37;15.63;62.48
57709;SHT35;42558;52.388;13.390;2023-01-01T12:38:00;15.56;62.99
57709;SHT35;42558;52.388;13.390;2023-01-01T12:40:59;15.49;63.17
57709;SHT35;42558;52.388;13.390;2023-01-01T12:57:22;15.42;63.53
57709;SHT35;42558;52.388;13.390;2023-01-01T13:00:12;15.40;63.64
57709;SHT35;42558;52.388;13.390;2023-01-01T13:02:49;15.36;63.99
57709;SHT35;42558;52.388;13.390;2023-01-01T13:05:37;15.38;63.65
57709;SHT35;42558;52.388;13.390;2023-01-01T13:08:12;15.35;63.65
57709;SHT35;42558;52.388;13.390;2023-01-01T13:10:42;15.37;63.65
57709;SHT35;42558;52.388;13.390;2023-01-01T13:13:17;15.36;63.72
57709;SHT35;42558;52.388;13.390;2023-01-01T13:15:56;15.32;64.07
57709;SHT35;42558;52.388;13.390;2023-01-01T13:18:28;15.32;64.17
57709;SHT35;42558;52.388;13.390;2023-01-01T13:21:03;15.26;64.55
57709;SHT35;42558;52.388;13.390;2023-01-01T13:23:46;15.24;64.49
57709;SHT35;42558;52.388;13.390;2023-01-01T13:37:39;15.12;64.93
57709;SHT35;42558;52.388;13.390;2023-01-01T13:48:54;15.12;65.14
57709;SHT35;42558;52.388;13.390;2023-01-01T13:58:23;15.00;66.06
57709;SHT35;42558;52.388;13.390;2023-01-01T14:04:33;14.96;65.99
57709;SHT35;42558;52.388;13.390;2023-01-01T14:07:19;15.05;65.66
57709;SHT35;42558;52.388;13.390;2023-01-01T14:12:53;14.91;66.41
57709;SHT35;42558;52.388;13.390;2023-01-01T14:18:27;14.92;66.53
57709;SHT35;42558;52.388;13.390;2023-01-01T14:21:24;14.87;66.67
57709;SHT35;42558;52.388;13.390;2023-01-01T14:24:02;14.86;66.77
57709;SHT35;42558;52.388;13.390;2023-01-01T14:26:36;14.88;66.73
57709;SHT35;42558;52.388;13.390;2023-01-01T14:29:08;14.82;67.07
57709;SHT35;42558;52.388;13.390;2023-01-01T14:31:46;14.80;66.99
57709;SHT35;42558;52.388;13.390;2023-01-01T14:36:58;14.76;67.20
57709;SHT35;42558;52.388;13.390;2023-01-01T14:39:31;14.77;67.16
57709;SHT35;42558;52.388;13.390;2023-01-01T14:42:05;14.72;67.30
57709;SHT35;42558;52.388;13.390;2023-01-01T14:44:44;14.65;67.51
57709;SHT35;42558;52.388;13.390;2023-01-01T14:47:23;14.58;67.65
57709;SHT35;42558;52.388;13.390;2023-01-01T14:50:04;14.49;67.97
57709;SHT35;42558;52.388;13.390;2023-01-01T14:52:53;14.42;68.11
57709;SHT35;42558;52.388;13.390;2023-01-01T14:55:40;14.38;68.36
57709;SHT35;42558;52.388;13.390;2023-01-01T15:01:12;14.31;68.57
57709;SHT35;42558;52.388;13.390;2023-01-01T15:03:55;14.27;68.63
57709;SHT35;42558;52.388;13.390;2023-01-01T15:06:44;14.31;68.47
57709;SHT35;42558;52.388;13.390;2023-01-01T15:09:14;14.33;68.45
57709;SHT35;42558;52.388;13.390;2023-01-01T15:11:45;14.31;68.48
57709;SHT35;42558;52.388;13.390;2023-01-01T15:14:29;14.21;68.74
57709;SHT35;42558;52.388;13.390;2023-01-01T15:17:06;14.09;69.08
57709;SHT35;42558;52.388;13.390;2023-01-01T15:19:42;14.01;69.40
57709;SHT35;42558;52.388;13.390;2023-01-01T15:22:19;13.94;69.55
57709;SHT35;42558;52.388;13.390;2023-01-01T15:25:12;13.88;69.76
57709;SHT35;42558;52.388;13.390;2023-01-01T15:27:49;13.86;69.83
57709;SHT35;42558;52.388;13.390;2023-01-01T15:30:23;13.90;69.80
57709;SHT35;42558;52.388;13.390;2023-01-01T15:33:06;13.87;69.93
57709;SHT35;42558;52.388;13.390;2023-01-01T15:35:45;13.84;70.08
57709;SHT35;42558;52.388;13.390;2023-01-01T15:38:22;13.77;70.25
57709;SHT35;42558;52.388;13.390;2023-01-01T15:40:59;13.75;70.37
57709;SHT35;42558;52.388;13.390;2023-01-01T15:43:27;13.67;70.63
57709;SHT35;42558;52.388;13.390;2023-01-01T15:46:09;13.60;70.79
57709;SHT35;42558;52.388;13.390;2023-01-01T15:48:50;13.48;71.16
57709;SHT35;42558;52.388;13.390;2023-01-01T15:51:21;13.40;71.45
57709;SHT35;42558;52.388;13.390;2023-01-01T15:53:56;13.33;71.59
57709;SHT35;42558;52.388;13.390;2023-01-01T15:56:30;13.27;71.77
57709;SHT35;42558;52.388;13.390;2023-01-01T15:59:17;13.28;71.68
57709;SHT35;42558;52.388;13.390;2023-01-01T16:02:04;13.11;72.11
57709;SHT35;42558;52.388;13.390;2023-01-01T16:04:48;12.97;72.53
57709;SHT35;42558;52.388;13.390;2023-01-01T16:07:20;12.90;72.74
57709;SHT35;42558;52.388;13.390;2023-01-01T16:09:53;12.85;72.79
57709;SHT35;42558;52.388;13.390;2023-01-01T16:12:24;12.78;73.07
57709;SHT35;42558;52.388;13.390;2023-01-01T16:14:53;12.78;73.27
57709;SHT35;42558;52.388;13.390;2023-01-01T16:17:21;12.86;72.92
57709;SHT35;42558;52.388;13.390;2023-01-01T16:19:50;12.85;73.00
57709;SHT35;42558;52.388;13.390;2023-01-01T16:22:18;12.82;73.06
57709;SHT35;42558;52.388;13.390;2023-01-01T16:24:47;12.83;72.99
57709;SHT35;42558;52.388;13.390;2023-01-01T16:27:15;12.78;73.17
57709;SHT35;42558;52.388;13.390;2023-01-01T16:29:43;12.75;73.28
57709;SHT35;42558;52.388;13.390;2023-01-01T16:32:22;12.68;73.46
57709;SHT35;42558;52.388;13.390;2023-01-01T16:34:52;12.61;73.65
57709;SHT35;42558;52.388;13.390;2023-01-01T16:37:22;12.51;73.80
57709;SHT35;42558;52.388;13.390;2023-01-01T16:39:52;12.37;74.24
57709;SHT35;42558;52.388;13.390;2023-01-01T16:42:22;12.24;74.78
57709;SHT35;42558;52.388;13.390;2023-01-01T16:44:53;12.25;74.84
57709;SHT35;42558;52.388;13.390;2023-01-01T16:47:23;12.30;74.71
57709;SHT35;42558;52.388;13.390;2023-01-01T16:49:52;12.33;74.76
57709;SHT35;42558;52.388;13.390;2023-01-01T16:52:22;12.39;74.44
57709;SHT35;42558;52.388;13.390;2023-01-01T16:54:52;12.39;74.49
57709;SHT35;42558;52.388;13.390;2023-01-01T16:57:22;12.34;74.54
57709;SHT35;42558;52.388;13.390;2023-01-01T16:59:52;12.29;74.86
57709;SHT35;42558;52.388;13.390;2023-01-01T17:02:21;12.28;74.99
57709;SHT35;42558;52.388;13.390;2023-01-01T17:04:51;12.41;74.72
57709;SHT35;42558;52.388;13.390;2023-01-01T17:07:21;12.56;74.16
57709;SHT35;42558;52.388;13.390;2023-01-01T17:09:51;12.74;73.51
57709;SHT35;42558;52.388;13.390;2023-01-01T17:12:21;12.75;73.36
57709;SHT35;42558;52.388;13.390;2023-01-01T17:14:49;12.73;73.39
57709;SHT35;42558;52.388;13.390;2023-01-01T17:17:18;12.69;73.54
57709;SHT35;42558;52.388;13.390;2023-01-01T17:19:46;12.75;73.41
57709;SHT35;42558;52.388;13.390;2023-01-01T17:22:18;12.77;73.35
57709;SHT35;42558;52.388;13.390;2023-01-01T17:24:49;12.83;73.03
57709;SHT35;42558;52.388;13.390;2023-01-01T17:27:19;12.78;73.17
57709;SHT35;42558;52.388;13.390;2023-01-01T17:29:49;12.68;73.56
57709;SHT35;42558;52.388;13.390;2023-01-01T17:32:18;12.60;73.78
57709;SHT35;42558;52.388;13.390;2023-01-01T17:34:48;12.54;74.02
57709;SHT35;42558;52.388;13.390;2023-01-01T17:37:18;12.50;74.26
57709;SHT35;42558;52.388;13.390;2023-01-01T17:39:48;12.49;74.29
57709;SHT35;42558;52.388;13.390;2023-01-01T17:42:18;12.45;74.37
57709;SHT35;42558;52.388;13.390;2023-01-01T17:44:48;12.36;74.50
57709;SHT35;42558;52.388;13.390;2023-01-01T17:47:18;12.26;74.81
57709;SHT35;42558;52.388;13.390;2023-01-01T17:49:48;12.14;75.13
57709;SHT35;42558;52.388;13.390;2023-01-01T17:52:18;12.02;75.51
57709;SHT35;42558;52.388;13.390;2023-01-01T17:54:47;11.91;75.92
57709;SHT35;42558;52.388;13.390;2023-01-01T17:57:17;11.84;76.12
57709;SHT35;42558;52.388;13.390;2023-01-01T17:59:47;11.78;76.24
57709;SHT35;42558;52.388;13.390;2023-01-01T18:02:17;11.75;76.42
57709;SHT35;42558;52.388;13.390;2023-01-01T18:04:46;11.71;76.45
57709;SHT35;42558;52.388;13.390;2023-01-01T18:07:14;11.69;76.64
57709;SHT35;42558;52.388;13.390;2023-01-01T18:09:42;11.74;76.43
57709;SHT35;42558;52.388;13.390;2023-01-01T18:12:11;11.75;76.26
57709;SHT35;42558;52.388;13.390;2023-01-01T18:14:42;11.80;76.05
57709;SHT35;42558;52.388;13.390;2023-01-01T18:17:11;11.79;75.92
57709;SHT35;42558;52.388;13.390;2023-01-01T18:19:39;11.83;75.69
57709;SHT35;42558;52.388;13.390;2023-01-01T18:22:07;11.74;75.88
57709;SHT35;42558;52.388;13.390;2023-01-01T18:24:36;11.69;76.20
57709;SHT35;42558;52.388;13.390;2023-01-01T18:27:04;11.64;76.21
57709;SHT35;42558;52.388;13.390;2023-01-01T18:29:36;11.58;76.39
57709;SHT35;42558;52.388;13.390;2023-01-01T18:32:06;11.53;76.43